Phoenix Cross — MRBQ7 — position and weather

sailwx.info

Track history (hours):
 
Tides and Currents Weather Stations Pressure Air Temp Water Temp Dewpoint Dewpoint Depression Visibility Wind Speed Wind Dir Waves Ship Positions

Phoenix Cross

Last reported at 2014-Oct-30 16:11 UTC. Time now 2014-Oct-31 08:35 UTC.
Position N 54°35' W 001°13'.

Length 30 m; draft 5 m.

Type: Ship. MMSI: 235067452.

Date/timePositionNaut miles runAvg speedWind from/ knotsBaromVisibWave heightAir tempDewpointWater temp
2014-Oct-30 16:11N 54°35' W 001°13'0 0.0
2014-Oct-30 15:31N 54°35' W 001°13'0 0.0
2014-Oct-30 14:33N 54°35' W 001°13'0 0.0
2014-Oct-30 13:33N 54°35' W 001°13'3 3.2
2014-Oct-30 12:33N 54°38' W 001°10'3 3.2
2014-Oct-30 11:32N 54°35' W 001°13'0 0.0
2014-Oct-30 10:33N 54°35' W 001°13'0 0.0
2014-Oct-30 09:33N 54°35' W 001°13'0 0.0
2014-Oct-30 08:32N 54°35' W 001°13'0 0.0
2014-Oct-29 16:28N 54°35' W 001°13'1 1.4
2014-Oct-29 15:32N 54°36' W 001°11'1 1.0
2014-Oct-29 14:33N 54°36' W 001°10'1 1.2
2014-Oct-29 13:33N 54°37' W 001°10'0 0.1
2014-Oct-29 12:33N 54°37' W 001°09'3 3.2
2014-Oct-29 11:33N 54°35' W 001°13'0 0.0
2014-Oct-29 10:32N 54°35' W 001°13'0 0.0
2014-Oct-29 09:33N 54°35' W 001°13'0 0.0
2014-Oct-29 08:33N 54°35' W 001°13'0 0.0
2014-Oct-29 07:33N 54°35' W 001°13'0 0.0
2014-Oct-28 17:04N 54°35' W 001°13'0 0.0
2014-Oct-28 14:33N 54°35' W 001°13'0 0.0
2014-Oct-28 13:25N 54°35' W 001°13'0 0.0
2014-Oct-28 12:33N 54°35' W 001°13'0 0.0
2014-Oct-28 11:33N 54°35' W 001°13'0 0.0
2014-Oct-28 10:30N 54°35' W 001°13'0 0.0
2014-Oct-28 09:31N 54°35' W 001°13'0 0.0
2014-Oct-28 08:32N 54°35' W 001°13'0 0.0
2014-Oct-28 07:32N 54°35' W 001°13'0 0.0
2014-Oct-27 15:32N 54°35' W 001°13'0 0.0
2014-Oct-27 14:33N 54°35' W 001°13'0 0.0
2014-Oct-27 13:33N 54°35' W 001°13'0 0.0
2014-Oct-27 12:29N 54°35' W 001°13'0 0.0
2014-Oct-27 11:30N 54°35' W 001°13'0 0.0
2014-Oct-27 10:33N 54°35' W 001°13'0 0.0
2014-Oct-27 09:33N 54°35' W 001°13'3 3.0
2014-Oct-27 08:33N 54°37' W 001°10'1 1.4
2014-Oct-27 07:33N 54°39' W 001°09'4 3.7
2014-Oct-27 06:33N 54°35' W 001°11'1 0.1
2014-Oct-26 16:23N 54°35' W 001°13'0 0.0
2014-Oct-26 15:33N 54°35' W 001°13'0 0.0
2014-Oct-26 14:33N 54°35' W 001°13'2 2.3
2014-Oct-26 13:33N 54°36' W 001°09'1 0.5
2014-Oct-26 12:33N 54°37' W 001°09'3 2.8
2014-Oct-26 11:33N 54°35' W 001°13'0 0.0
2014-Oct-26 10:33N 54°35' W 001°13'0 0.0
2014-Oct-26 09:32N 54°35' W 001°13'3 3.5
2014-Oct-26 08:33N 54°38' W 001°09'3 3.1
2014-Oct-26 07:34N 54°35' W 001°12'3 2.3
2014-Oct-26 06:17N 54°37' W 001°09'2 0.2
2014-Oct-25 20:09N 54°39' W 001°08'5 1.8
2014-Oct-25 17:26N 54°35' W 001°12'0 0.1
2014-Oct-25 16:15N 54°35' W 001°13'0 0.0
2014-Oct-25 15:32N 54°35' W 001°13'0 0.0
2014-Oct-25 14:30N 54°35' W 001°13'0 0.0
2014-Oct-25 13:33N 54°35' W 001°13'0 0.0
2014-Oct-25 12:33N 54°35' W 001°13'0 0.0
2014-Oct-25 11:33N 54°35' W 001°13'0 0.0
2014-Oct-25 10:31N 54°35' W 001°13'0 0.0
2014-Oct-25 09:32N 54°35' W 001°13'0 0.0
2014-Oct-25 08:33N 54°35' W 001°13'0 0.0
2014-Oct-25 07:33N 54°35' W 001°13'0 0.0
2014-Oct-24 16:30N 54°35' W 001°13'0 0.0
2014-Oct-24 15:33N 54°35' W 001°13'0 0.0
2014-Oct-24 14:33N 54°35' W 001°13'0 0.0
2014-Oct-24 13:33N 54°35' W 001°13'0 0.0
2014-Oct-24 12:33N 54°35' W 001°13'0 0.0
2014-Oct-24 11:32N 54°35' W 001°13'0 0.0
2014-Oct-24 10:30N 54°35' W 001°13'0 0.0
2014-Oct-24 09:33N 54°35' W 001°13'0 0.0
2014-Oct-24 08:33N 54°35' W 001°13'2 2.3
2014-Oct-24 07:33N 54°36' W 001°10'1 1.2
2014-Oct-24 06:33N 54°38' W 001°10'1 1.4
2014-Oct-24 05:33N 54°36' W 001°10'2 0.8
2014-Oct-24 02:29N 54°39' W 001°09'1 0.1
2014-Oct-23 16:33N 54°37' W 001°09'0 0.0
2014-Oct-23 15:32N 54°37' W 001°09'1 1.1
2014-Oct-23 14:33N 54°36' W 001°09'2 2.3
2014-Oct-23 13:33N 54°35' W 001°13'0 0.0
2014-Oct-23 12:32N 54°35' W 001°13'0 0.0
2014-Oct-23 11:33N 54°35' W 001°13'0 0.0
2014-Oct-23 10:33N 54°35' W 001°13'0 0.0
2014-Oct-23 09:32N 54°35' W 001°13'0 0.0
2014-Oct-23 08:32N 54°35' W 001°13'3 3.1
2014-Oct-23 07:34N 54°37' W 001°10'1 0.9
2014-Oct-23 06:33N 54°38' W 001°09'1 0.9
2014-Oct-23 05:32N 54°37' W 001°09'3 0.2
2014-Oct-22 10:31N 54°35' W 001°13'0 0.0
2014-Oct-22 09:33N 54°35' W 001°13'1 0.7
2014-Oct-22 08:33N 54°35' W 001°12'3 2.5
2014-Oct-22 07:32N 54°37' W 001°09'3 0.1
2014-Oct-20 16:31N 54°35' W 001°13'  
Track history (hours):
 
Tides and Currents Weather Stations Pressure Air Temp Water Temp Dewpoint Dewpoint Depression Visibility Wind Speed Wind Dir Waves Ship Positions

Phoenix Cross

Last reported at 2014-Oct-30 16:11 UTC. Time now 2014-Oct-31 08:35 UTC.
Position N 54°35' W 001°13'.

Length 30 m; draft 5 m.

Type: Ship. MMSI: 235067452.

Date/timePositionNaut miles runAvg speedWind from/ knotsBaromVisibWave heightAir tempDewpointWater temp
2014-Oct-30 16:11N 54°35' W 001°13'0 0.0
2014-Oct-30 15:31N 54°35' W 001°13'0 0.0
2014-Oct-30 14:33N 54°35' W 001°13'0 0.0
2014-Oct-30 13:33N 54°35' W 001°13'3 3.2
2014-Oct-30 12:33N 54°38' W 001°10'3 3.2
2014-Oct-30 11:32N 54°35' W 001°13'0 0.0
2014-Oct-30 10:33N 54°35' W 001°13'0 0.0
2014-Oct-30 09:33N 54°35' W 001°13'0 0.0
2014-Oct-30 08:32N 54°35' W 001°13'0 0.0
2014-Oct-29 16:28N 54°35' W 001°13'1 1.4
2014-Oct-29 15:32N 54°36' W 001°11'1 1.0
2014-Oct-29 14:33N 54°36' W 001°10'1 1.2
2014-Oct-29 13:33N 54°37' W 001°10'0 0.1
2014-Oct-29 12:33N 54°37' W 001°09'3 3.2
2014-Oct-29 11:33N 54°35' W 001°13'0 0.0
2014-Oct-29 10:32N 54°35' W 001°13'0 0.0
2014-Oct-29 09:33N 54°35' W 001°13'0 0.0
2014-Oct-29 08:33N 54°35' W 001°13'0 0.0
2014-Oct-29 07:33N 54°35' W 001°13'0 0.0
2014-Oct-28 17:04N 54°35' W 001°13'0 0.0
2014-Oct-28 14:33N 54°35' W 001°13'0 0.0
2014-Oct-28 13:25N 54°35' W 001°13'0 0.0
2014-Oct-28 12:33N 54°35' W 001°13'0 0.0
2014-Oct-28 11:33N 54°35' W 001°13'0 0.0
2014-Oct-28 10:30N 54°35' W 001°13'0 0.0
2014-Oct-28 09:31N 54°35' W 001°13'0 0.0
2014-Oct-28 08:32N 54°35' W 001°13'0 0.0
2014-Oct-28 07:32N 54°35' W 001°13'0 0.0
2014-Oct-27 15:32N 54°35' W 001°13'0 0.0
2014-Oct-27 14:33N 54°35' W 001°13'0 0.0
2014-Oct-27 13:33N 54°35' W 001°13'0 0.0
2014-Oct-27 12:29N 54°35' W 001°13'0 0.0
2014-Oct-27 11:30N 54°35' W 001°13'0 0.0
2014-Oct-27 10:33N 54°35' W 001°13'0 0.0
2014-Oct-27 09:33N 54°35' W 001°13'3 3.0
2014-Oct-27 08:33N 54°37' W 001°10'1 1.4
2014-Oct-27 07:33N 54°39' W 001°09'4 3.7
2014-Oct-27 06:33N 54°35' W 001°11'1 0.1
2014-Oct-26 16:23N 54°35' W 001°13'0 0.0
2014-Oct-26 15:33N 54°35' W 001°13'0 0.0
2014-Oct-26 14:33N 54°35' W 001°13'2 2.3
2014-Oct-26 13:33N 54°36' W 001°09'1 0.5
2014-Oct-26 12:33N 54°37' W 001°09'3 2.8
2014-Oct-26 11:33N 54°35' W 001°13'0 0.0
2014-Oct-26 10:33N 54°35' W 001°13'0 0.0
2014-Oct-26 09:32N 54°35' W 001°13'3 3.5
2014-Oct-26 08:33N 54°38' W 001°09'3 3.1
2014-Oct-26 07:34N 54°35' W 001°12'3 2.3
2014-Oct-26 06:17N 54°37' W 001°09'2 0.2
2014-Oct-25 20:09N 54°39' W 001°08'5 1.8
2014-Oct-25 17:26N 54°35' W 001°12'0 0.1
2014-Oct-25 16:15N 54°35' W 001°13'0 0.0
2014-Oct-25 15:32N 54°35' W 001°13'0 0.0
2014-Oct-25 14:30N 54°35' W 001°13'0 0.0
2014-Oct-25 13:33N 54°35' W 001°13'0 0.0
2014-Oct-25 12:33N 54°35' W 001°13'0 0.0
2014-Oct-25 11:33N 54°35' W 001°13'0 0.0
2014-Oct-25 10:31N 54°35' W 001°13'0 0.0
2014-Oct-25 09:32N 54°35' W 001°13'0 0.0
2014-Oct-25 08:33N 54°35' W 001°13'0 0.0
2014-Oct-25 07:33N 54°35' W 001°13'0 0.0
2014-Oct-24 16:30N 54°35' W 001°13'0 0.0
2014-Oct-24 15:33N 54°35' W 001°13'0 0.0
2014-Oct-24 14:33N 54°35' W 001°13'0 0.0
2014-Oct-24 13:33N 54°35' W 001°13'0 0.0
2014-Oct-24 12:33N 54°35' W 001°13'0 0.0
2014-Oct-24 11:32N 54°35' W 001°13'0 0.0
2014-Oct-24 10:30N 54°35' W 001°13'0 0.0
2014-Oct-24 09:33N 54°35' W 001°13'0 0.0
2014-Oct-24 08:33N 54°35' W 001°13'2 2.3
2014-Oct-24 07:33N 54°36' W 001°10'1 1.2
2014-Oct-24 06:33N 54°38' W 001°10'1 1.4
2014-Oct-24 05:33N 54°36' W 001°10'2 0.8
2014-Oct-24 02:29N 54°39' W 001°09'1 0.1
2014-Oct-23 16:33N 54°37' W 001°09'0 0.0
2014-Oct-23 15:32N 54°37' W 001°09'1 1.1
2014-Oct-23 14:33N 54°36' W 001°09'2 2.3
2014-Oct-23 13:33N 54°35' W 001°13'0 0.0
2014-Oct-23 12:32N 54°35' W 001°13'0 0.0
2014-Oct-23 11:33N 54°35' W 001°13'0 0.0
2014-Oct-23 10:33N 54°35' W 001°13'0 0.0
2014-Oct-23 09:32N 54°35' W 001°13'0 0.0
2014-Oct-23 08:32N 54°35' W 001°13'3 3.1
2014-Oct-23 07:34N 54°37' W 001°10'1 0.9
2014-Oct-23 06:33N 54°38' W 001°09'1 0.9
2014-Oct-23 05:32N 54°37' W 001°09'3 0.2
2014-Oct-22 10:31N 54°35' W 001°13'0 0.0
2014-Oct-22 09:33N 54°35' W 001°13'1 0.7
2014-Oct-22 08:33N 54°35' W 001°12'3 2.5
2014-Oct-22 07:32N 54°37' W 001°09'3 0.1
2014-Oct-20 16:31N 54°35' W 001°13'  

Dump ship's entire track history